Newport Municipal Airport
KONP : now visible

Airfield :











YOU CAN JOIN US ON...

 
LOGIN :

Register | Disclaimer

   EN    FR    IT 

 









Legend :    VFR   Marginal VFR   IFR   Intensive IFR   Very Intensive IFR
Visi :
Ceiling :
>= 8 km
>= 3000ft
5 to 8 km
1000 to 3000 ft
1500m to 5 km
500 to 1000 ft
800 to 1500m
200 to 500 ft
< 800m
< 200 ft
Symbols :   Thunderstorms  Fog  Heavy snow  Heavy precipitations  Wind > 20 kt






- Airport Elevation : 160 ft


KONP - Newport Municipal

CURRENT METAR :
  • 110855Z AUTO 10005KT 7SM OVC024 07/07 A3008 RMK AO2

EXPIRED METARs :
  • 110835Z AUTO 10004KT 7SM OVC024 07/07 A3009 RMK AO2
  • 110815Z AUTO 00000KT 10SM OVC026 07/07 A3010 RMK AO2
  • 110755Z AUTO 00000KT 10SM OVC026 07/07 A3010 RMK AO2
  • 110735Z AUTO 08004KT 10SM OVC028 07/07 A3011 RMK AO2
  • 110715Z AUTO 09005KT 10SM OVC028 07/07 A3011 RMK AO2
  • 110655Z AUTO 09005KT 7SM BKN030 OVC037 07/07 A3011 RMK AO2 P0001
  • 110635Z AUTO 09006KT 5SM -DZ SCT017 BKN030 OVC045 07/07 A3011 RMK AO2 P0001
  • 110615Z AUTO 09005KT 5SM DZ SCT014 OVC019 08/07 A3012 RMK AO2 P0001

TAF KONP
Valid from the 11 at 06:00 until the 12 at 06:00 UTC


110540Z 1106/1206 12005KT 4SM BR VCSH OVC016
FM111500 18011KT P6SM OVC010
FM111800 18013G20KT P6SM OVC035
FM112100 18020G32KT 4SM -RA OVC050
FM112300 18022G32KT 2SM RA OVC030 WS015/19040KT
FM120300 20018G28KT 4SM -RA BR OVC015



MET'MAP, your aeronautical weather chart ! - Copyright ORBIFLY December 2007 - Disclaimer

ORBIFLY MET'MAP TEAM :

Programming & Development : Alexandra Zaïnal
Concept & original design : Baudouin d'Aumeries
Assistance for programming : Marc-Olivier Méhu
Technical & hardware support : Manuel Goepfert

Contact : metmap@orbifly.com




SOURCES & CREDITS :

   NOAA       Earth
Advisory